sensor_id;sensor_type;location;lat;lon;timestamp;temperature;humidity
25320;DHT22;13256;49.012;8.610;2023-04-23T00:00:48;13.50;99.90
25320;DHT22;13256;49.012;8.610;2023-04-23T00:03:21;13.50;99.90
25320;DHT22;13256;49.012;8.610;2023-04-23T00:05:52;13.50;99.90
25320;DHT22;13256;49.012;8.610;2023-04-23T00:08:21;13.40;99.90
25320;DHT22;13256;49.012;8.610;2023-04-23T00:10:51;13.40;99.90
25320;DHT22;13256;49.012;8.610;2023-04-23T00:13:22;13.40;99.90
25320;DHT22;13256;49.012;8.610;2023-04-23T00:15:49;13.40;99.90
25320;DHT22;13256;49.012;8.610;2023-04-23T00:18:15;13.40;99.90
25320;DHT22;13256;49.012;8.610;2023-04-23T00:20:48;13.30;99.90
25320;DHT22;13256;49.012;8.610;2023-04-23T00:23:17;13.30;99.90
25320;DHT22;13256;49.012;8.610;2023-04-23T00:25:49;13.30;99.90
25320;DHT22;13256;49.012;8.610;2023-04-23T00:28:27;13.30;99.90
25320;DHT22;13256;49.012;8.610;2023-04-23T00:30:58;13.20;99.90
25320;DHT22;13256;49.012;8.610;2023-04-23T00:33:29;13.10;99.90
25320;DHT22;13256;49.012;8.610;2023-04-23T00:35:56;13.10;99.90
25320;DHT22;13256;49.012;8.610;2023-04-23T00:38:23;13.00;99.90
25320;DHT22;13256;49.012;8.610;2023-04-23T00:40:51;13.00;99.90
25320;DHT22;13256;49.012;8.610;2023-04-23T00:43:20;12.90;99.90
25320;DHT22;13256;49.012;8.610;2023-04-23T00:45:47;12.90;99.90
25320;DHT22;13256;49.012;8.610;2023-04-23T00:48:18;12.90;99.90
25320;DHT22;13256;49.012;8.610;2023-04-23T00:50:46;12.90;99.90
25320;DHT22;13256;49.012;8.610;2023-04-23T00:53:22;12.90;99.90
25320;DHT22;13256;49.012;8.610;2023-04-23T00:55:53;12.80;99.90
25320;DHT22;13256;49.012;8.610;2023-04-23T00:58:21;12.80;99.90
25320;DHT22;13256;49.012;8.610;2023-04-23T01:00:48;12.70;99.90
25320;DHT22;13256;49.012;8.610;2023-04-23T01:03:21;12.70;99.90
25320;DHT22;13256;49.012;8.610;2023-04-23T01:05:51;12.70;99.90
25320;DHT22;13256;49.012;8.610;2023-04-23T01:08:25;12.70;99.90
25320;DHT22;13256;49.012;8.610;2023-04-23T01:10:52;12.70;99.90
25320;DHT22;13256;49.012;8.610;2023-04-23T01:16:18;12.70;99.90
25320;DHT22;13256;49.012;8.610;2023-04-23T01:18:49;12.70;99.90
25320;DHT22;13256;49.012;8.610;2023-04-23T01:21:19;12.70;99.90
25320;DHT22;13256;49.012;8.610;2023-04-23T01:24:12;12.70;99.90
25320;DHT22;13256;49.012;8.610;2023-04-23T01:50:08;12.60;99.90
25320;DHT22;13256;49.012;8.610;2023-04-23T01:52:41;12.60;99.90
25320;DHT22;13256;49.012;8.610;2023-04-23T01:55:13;12.70;99.90
25320;DHT22;13256;49.012;8.610;2023-04-23T01:57:45;12.70;99.90
25320;DHT22;13256;49.012;8.610;2023-04-23T02:00:18;12.70;99.90
25320;DHT22;13256;49.012;8.610;2023-04-23T02:02:46;12.70;99.90
25320;DHT22;13256;49.012;8.610;2023-04-23T02:05:16;12.60;99.90
25320;DHT22;13256;49.012;8.610;2023-04-23T02:07:55;12.70;99.90
25320;DHT22;13256;49.012;8.610;2023-04-23T02:10:21;12.60;99.90
25320;DHT22;13256;49.012;8.610;2023-04-23T02:12:49;12.60;99.90
25320;DHT22;13256;49.012;8.610;2023-04-23T02:15:20;12.60;99.90
25320;DHT22;13256;49.012;8.610;2023-04-23T02:17:49;12.60;99.90
25320;DHT22;13256;49.012;8.610;2023-04-23T02:20:18;12.60;99.90
25320;DHT22;13256;49.012;8.610;2023-04-23T02:22:48;12.60;99.90
25320;DHT22;13256;49.012;8.610;2023-04-23T02:25:17;12.60;99.90
25320;DHT22;13256;49.012;8.610;2023-04-23T02:27:49;12.60;99.90
25320;DHT22;13256;49.012;8.610;2023-04-23T02:30:18;12.60;99.90
25320;DHT22;13256;49.012;8.610;2023-04-23T02:33:14;12.50;99.90
25320;DHT22;13256;49.012;8.610;2023-04-23T02:35:45;12.50;99.90
25320;DHT22;13256;49.012;8.610;2023-04-23T02:38:16;12.50;99.90
25320;DHT22;13256;49.012;8.610;2023-04-23T02:40:43;12.50;99.90
25320;DHT22;13256;49.012;8.610;2023-04-23T02:43:17;12.50;99.90
25320;DHT22;13256;49.012;8.610;2023-04-23T02:45:48;12.40;99.90
25320;DHT22;13256;49.012;8.610;2023-04-23T02:48:15;12.40;99.90
25320;DHT22;13256;49.012;8.610;2023-04-23T02:50:44;12.40;99.90
25320;DHT22;13256;49.012;8.610;2023-04-23T02:53:12;12.50;99.90
25320;DHT22;13256;49.012;8.610;2023-04-23T02:55:39;12.50;99.90
25320;DHT22;13256;49.012;8.610;2023-04-23T02:58:05;12.50;99.90
25320;DHT22;13256;49.012;8.610;2023-04-23T03:00:34;12.50;99.90
25320;DHT22;13256;49.012;8.610;2023-04-23T03:03:07;12.50;99.90
25320;DHT22;13256;49.012;8.610;2023-04-23T03:05:40;12.60;99.90
25320;DHT22;13256;49.012;8.610;2023-04-23T03:08:07;12.60;99.90
25320;DHT22;13256;49.012;8.610;2023-04-23T03:10:41;12.60;99.90
25320;DHT22;13256;49.012;8.610;2023-04-23T03:13:08;12.60;99.90
25320;DHT22;13256;49.012;8.610;2023-04-23T03:15:38;12.70;99.90
25320;DHT22;13256;49.012;8.610;2023-04-23T03:18:06;12.70;99.90
25320;DHT22;13256;49.012;8.610;2023-04-23T03:20:36;12.70;99.90
25320;DHT22;13256;49.012;8.610;2023-04-23T03:23:06;12.70;99.90
25320;DHT22;13256;49.012;8.610;2023-04-23T03:25:33;12.70;99.90
25320;DHT22;13256;49.012;8.610;2023-04-23T03:28:00;12.70;99.90
25320;DHT22;13256;49.012;8.610;2023-04-23T03:30:30;12.70;99.90
25320;DHT22;13256;49.012;8.610;2023-04-23T03:33:01;12.70;99.90
25320;DHT22;13256;49.012;8.610;2023-04-23T03:35:29;12.70;99.90
25320;DHT22;13256;49.012;8.610;2023-04-23T03:40:26;12.70;99.90
25320;DHT22;13256;49.012;8.610;2023-04-23T03:42:57;12.70;99.90
25320;DHT22;13256;49.012;8.610;2023-04-23T03:48:28;12.70;99.90
25320;DHT22;13256;49.012;8.610;2023-04-23T03:50:56;12.70;99.90
25320;DHT22;13256;49.012;8.610;2023-04-23T03:53:41;12.70;99.90
25320;DHT22;13256;49.012;8.610;2023-04-23T03:56:32;12.60;99.90
25320;DHT22;13256;49.012;8.610;2023-04-23T03:59:24;12.60;99.90
25320;DHT22;13256;49.012;8.610;2023-04-23T04:01:55;12.60;99.90
25320;DHT22;13256;49.012;8.610;2023-04-23T04:04:24;12.50;99.90
25320;DHT22;13256;49.012;8.610;2023-04-23T04:06:56;12.50;99.90
25320;DHT22;13256;49.012;8.610;2023-04-23T04:09:29;12.40;99.90
25320;DHT22;13256;49.012;8.610;2023-04-23T04:12:00;12.40;99.90
25320;DHT22;13256;49.012;8.610;2023-04-23T04:14:31;12.40;99.90
25320;DHT22;13256;49.012;8.610;2023-04-23T04:16:58;12.40;99.90
25320;DHT22;13256;49.012;8.610;2023-04-23T04:19:24;12.40;99.90
25320;DHT22;13256;49.012;8.610;2023-04-23T04:21:51;12.40;99.90
25320;DHT22;13256;49.012;8.610;2023-04-23T04:24:20;12.40;99.90
25320;DHT22;13256;49.012;8.610;2023-04-23T04:26:48;12.40;99.90
25320;DHT22;13256;49.012;8.610;2023-04-23T04:29:19;12.30;99.90
25320;DHT22;13256;49.012;8.610;2023-04-23T04:31:49;12.30;99.90
25320;DHT22;13256;49.012;8.610;2023-04-23T04:34:22;12.30;99.90
25320;DHT22;13256;49.012;8.610;2023-04-23T04:36:48;12.20;99.90
25320;DHT22;13256;49.012;8.610;2023-04-23T04:39:17;12.20;99.90
25320;DHT22;13256;49.012;8.610;2023-04-23T04:41:44;12.20;99.90
25320;DHT22;13256;49.012;8.610;2023-04-23T04:44:12;12.20;99.90
25320;DHT22;13256;49.012;8.610;2023-04-23T04:46:42;12.20;99.90
25320;DHT22;13256;49.012;8.610;2023-04-23T04:49:13;12.20;99.90
25320;DHT22;13256;49.012;8.610;2023-04-23T04:51:40;12.10;99.90
25320;DHT22;13256;49.012;8.610;2023-04-23T04:54:09;12.20;99.90
25320;DHT22;13256;49.012;8.610;2023-04-23T04:56:36;12.20;99.90
25320;DHT22;13256;49.012;8.610;2023-04-23T04:59:03;12.20;99.90
25320;DHT22;13256;49.012;8.610;2023-04-23T05:01:35;12.20;99.90
25320;DHT22;13256;49.012;8.610;2023-04-23T05:04:02;12.20;99.90
25320;DHT22;13256;49.012;8.610;2023-04-23T05:06:33;12.20;99.90
25320;DHT22;13256;49.012;8.610;2023-04-23T05:09:01;12.20;99.90
25320;DHT22;13256;49.012;8.610;2023-04-23T05:12:18;12.20;99.90
25320;DHT22;13256;49.012;8.610;2023-04-23T05:14:48;12.20;99.90
25320;DHT22;13256;49.012;8.610;2023-04-23T05:17:15;12.10;99.90
25320;DHT22;13256;49.012;8.610;2023-04-23T05:19:45;12.20;99.90
25320;DHT22;13256;49.012;8.610;2023-04-23T05:22:12;12.10;99.90
25320;DHT22;13256;49.012;8.610;2023-04-23T05:24:39;12.10;99.90
25320;DHT22;13256;49.012;8.610;2023-04-23T05:27:15;12.20;99.90
25320;DHT22;13256;49.012;8.610;2023-04-23T05:29:42;12.20;99.90
25320;DHT22;13256;49.012;8.610;2023-04-23T05:32:13;12.20;99.90
25320;DHT22;13256;49.012;8.610;2023-04-23T05:35:05;12.20;99.90
25320;DHT22;13256;49.012;8.610;2023-04-23T05:37:32;12.30;99.90
25320;DHT22;13256;49.012;8.610;2023-04-23T05:39:59;12.30;99.90
25320;DHT22;13256;49.012;8.610;2023-04-23T05:42:27;12.40;99.90
25320;DHT22;13256;49.012;8.610;2023-04-23T05:45:03;12.40;99.90
25320;DHT22;13256;49.012;8.610;2023-04-23T05:47:35;12.40;99.90
25320;DHT22;13256;49.012;8.610;2023-04-23T05:50:06;12.40;99.90
25320;DHT22;13256;49.012;8.610;2023-04-23T05:52:34;12.50;99.90
25320;DHT22;13256;49.012;8.610;2023-04-23T05:55:08;12.50;99.90
25320;DHT22;13256;49.012;8.610;2023-04-23T05:57:36;12.50;99.90
25320;DHT22;13256;49.012;8.610;2023-04-23T06:00:06;12.60;99.90
25320;DHT22;13256;49.012;8.610;2023-04-23T06:03:01;12.60;99.90
25320;DHT22;13256;49.012;8.610;2023-04-23T06:05:30;12.70;99.90
25320;DHT22;13256;49.012;8.610;2023-04-23T06:07:57;12.70;99.90
25320;DHT22;13256;49.012;8.610;2023-04-23T06:10:26;12.80;99.90
25320;DHT22;13256;49.012;8.610;2023-04-23T06:12:53;12.80;99.90
25320;DHT22;13256;49.012;8.610;2023-04-23T06:15:21;12.80;99.90
25320;DHT22;13256;49.012;8.610;2023-04-23T06:17:54;12.80;99.90
25320;DHT22;13256;49.012;8.610;2023-04-23T06:20:21;12.80;99.90
25320;DHT22;13256;49.012;8.610;2023-04-23T06:22:48;12.80;99.90
25320;DHT22;13256;49.012;8.610;2023-04-23T06:25:14;12.70;99.90
25320;DHT22;13256;49.012;8.610;2023-04-23T06:27:41;12.70;99.90
25320;DHT22;13256;49.012;8.610;2023-04-23T06:30:17;12.70;99.90
25320;DHT22;13256;49.012;8.610;2023-04-23T06:32:48;12.70;99.90
25320;DHT22;13256;49.012;8.610;2023-04-23T06:35:15;12.70;99.90
25320;DHT22;13256;49.012;8.610;2023-04-23T06:37:47;12.70;99.90
25320;DHT22;13256;49.012;8.610;2023-04-23T06:40:14;12.80;99.90
25320;DHT22;13256;49.012;8.610;2023-04-23T06:42:49;12.80;99.90
25320;DHT22;13256;49.012;8.610;2023-04-23T06:45:36;12.90;99.90
25320;DHT22;13256;49.012;8.610;2023-04-23T06:48:03;13.00;99.90
25320;DHT22;13256;49.012;8.610;2023-04-23T06:50:33;13.00;99.90
25320;DHT22;13256;49.012;8.610;2023-04-23T06:53:04;13.10;99.90
25320;DHT22;13256;49.012;8.610;2023-04-23T07:01:19;13.30;99.90
25320;DHT22;13256;49.012;8.610;2023-04-23T07:03:46;13.40;99.90
25320;DHT22;13256;49.012;8.610;2023-04-23T07:06:17;13.50;99.90
25320;DHT22;13256;49.012;8.610;2023-04-23T07:08:44;13.60;99.90
25320;DHT22;13256;49.012;8.610;2023-04-23T07:11:11;13.70;99.90
25320;DHT22;13256;49.012;8.610;2023-04-23T07:13:40;13.80;99.90
25320;DHT22;13256;49.012;8.610;2023-04-23T07:16:07;13.80;99.90
25320;DHT22;13256;49.012;8.610;2023-04-23T07:18:34;14.00;99.90
25320;DHT22;13256;49.012;8.610;2023-04-23T07:21:09;14.00;99.90
25320;DHT22;13256;49.012;8.610;2023-04-23T07:23:38;14.10;99.90
25320;DHT22;13256;49.012;8.610;2023-04-23T07:26:07;14.30;99.90
25320;DHT22;13256;49.012;8.610;2023-04-23T07:28:35;14.40;99.90
25320;DHT22;13256;49.012;8.610;2023-04-23T07:31:31;14.60;99.90
25320;DHT22;13256;49.012;8.610;2023-04-23T07:34:02;14.80;99.90
25320;DHT22;13256;49.012;8.610;2023-04-23T07:36:32;14.90;99.90
25320;DHT22;13256;49.012;8.610;2023-04-23T07:39:06;14.90;99.90
25320;DHT22;13256;49.012;8.610;2023-04-23T07:41:33;14.90;99.90
25320;DHT22;13256;49.012;8.610;2023-04-23T07:44:00;14.90;99.90
25320;DHT22;13256;49.012;8.610;2023-04-23T07:46:54;14.90;99.90
25320;DHT22;13256;49.012;8.610;2023-04-23T07:49:26;14.80;99.90
25320;DHT22;13256;49.012;8.610;2023-04-23T07:51:56;14.80;99.90
25320;DHT22;13256;49.012;8.610;2023-04-23T07:54:23;14.80;99.90
25320;DHT22;13256;49.012;8.610;2023-04-23T07:56:52;14.80;99.90
25320;DHT22;13256;49.012;8.610;2023-04-23T07:59:54;14.80;99.90
25320;DHT22;13256;49.012;8.610;2023-04-23T08:02:24;14.80;99.90
25320;DHT22;13256;49.012;8.610;2023-04-23T08:04:53;15.00;99.90
25320;DHT22;13256;49.012;8.610;2023-04-23T08:07:20;15.00;99.90
25320;DHT22;13256;49.012;8.610;2023-04-23T08:09:55;15.10;99.90
25320;DHT22;13256;49.012;8.610;2023-04-23T08:12:27;15.30;99.90
25320;DHT22;13256;49.012;8.610;2023-04-23T08:14:56;15.40;99.90
25320;DHT22;13256;49.012;8.610;2023-04-23T08:17:29;15.50;99.90
25320;DHT22;13256;49.012;8.610;2023-04-23T08:19:56;15.60;99.90
25320;DHT22;13256;49.012;8.610;2023-04-23T08:22:24;15.70;99.90
25320;DHT22;13256;49.012;8.610;2023-04-23T08:24:51;15.70;99.90
25320;DHT22;13256;49.012;8.610;2023-04-23T08:27:20;15.70;99.90
25320;DHT22;13256;49.012;8.610;2023-04-23T08:39:08;15.40;99.90
25320;DHT22;13256;49.012;8.610;2023-04-23T08:41:39;15.30;99.90
25320;DHT22;13256;49.012;8.610;2023-04-23T08:44:18;15.20;99.90
25320;DHT22;13256;49.012;8.610;2023-04-23T08:49:58;15.20;99.90
25320;DHT22;13256;49.012;8.610;2023-04-23T09:15:38;17.60;99.90
25320;DHT22;13256;49.012;8.610;2023-04-23T09:32:51;18.20;99.90
25320;DHT22;13256;49.012;8.610;2023-04-23T09:35:18;18.30;99.90
25320;DHT22;13256;49.012;8.610;2023-04-23T09:40:55;18.50;99.90
25320;DHT22;13256;49.012;8.610;2023-04-23T09:43:29;18.60;99.90
25320;DHT22;13256;49.012;8.610;2023-04-23T09:48:55;18.50;99.90
25320;DHT22;13256;49.012;8.610;2023-04-23T09:51:24;18.70;99.90
25320;DHT22;13256;49.012;8.610;2023-04-23T10:00:15;19.30;99.90
25320;DHT22;13256;49.012;8.610;2023-04-23T10:08:58;19.80;99.90
25320;DHT22;13256;49.012;8.610;2023-04-23T10:11:25;19.90;99.90
25320;DHT22;13256;49.012;8.610;2023-04-23T10:26:30;20.00;99.90
25320;DHT22;13256;49.012;8.610;2023-04-23T10:29:00;20.10;99.90
25320;DHT22;13256;49.012;8.610;2023-04-23T10:31:31;20.10;99.90
25320;DHT22;13256;49.012;8.610;2023-04-23T10:33:59;19.60;99.90
25320;DHT22;13256;49.012;8.610;2023-04-23T10:36:30;19.50;99.90
25320;DHT22;13256;49.012;8.610;2023-04-23T10:38:57;19.50;99.90
25320;DHT22;13256;49.012;8.610;2023-04-23T10:41:36;19.60;99.90
25320;DHT22;13256;49.012;8.610;2023-04-23T10:44:04;19.90;99.90
25320;DHT22;13256;49.012;8.610;2023-04-23T10:46:32;20.00;99.90
25320;DHT22;13256;49.012;8.610;2023-04-23T10:49:14;20.20;99.90
25320;DHT22;13256;49.012;8.610;2023-04-23T10:51:44;20.70;99.90
25320;DHT22;13256;49.012;8.610;2023-04-23T10:54:47;21.00;99.90
25320;DHT22;13256;49.012;8.610;2023-04-23T10:57:15;21.30;99.80
25320;DHT22;13256;49.012;8.610;2023-04-23T10:59:52;21.40;98.80
25320;DHT22;13256;49.012;8.610;2023-04-23T11:02:24;21.30;98.30
25320;DHT22;13256;49.012;8.610;2023-04-23T11:04:58;21.00;95.60
25320;DHT22;13256;49.012;8.610;2023-04-23T11:07:32;20.70;96.00
25320;DHT22;13256;49.012;8.610;2023-04-23T11:10:13;20.60;96.60
25320;DHT22;13256;49.012;8.610;2023-04-23T11:12:43;20.40;97.10
25320;DHT22;13256;49.012;8.610;2023-04-23T11:15:15;20.20;97.70
25320;DHT22;13256;49.012;8.610;2023-04-23T11:20:28;20.30;97.60
25320;DHT22;13256;49.012;8.610;2023-04-23T11:22:55;20.40;98.00
25320;DHT22;13256;49.012;8.610;2023-04-23T11:25:26;20.60;98.30
25320;DHT22;13256;49.012;8.610;2023-04-23T11:27:57;20.90;98.30
25320;DHT22;13256;49.012;8.610;2023-04-23T11:30:27;21.00;96.30
25320;DHT22;13256;49.012;8.610;2023-04-23T11:32:56;21.20;95.80
25320;DHT22;13256;49.012;8.610;2023-04-23T11:35:29;21.30;95.70
25320;DHT22;13256;49.012;8.610;2023-04-23T11:38:14;21.30;95.20
25320;DHT22;13256;49.012;8.610;2023-04-23T11:40:45;21.50;96.80
25320;DHT22;13256;49.012;8.610;2023-04-23T11:43:17;21.70;97.50
25320;DHT22;13256;49.012;8.610;2023-04-23T11:45:44;21.80;96.70
25320;DHT22;13256;49.012;8.610;2023-04-23T11:48:14;21.90;95.80
25320;DHT22;13256;49.012;8.610;2023-04-23T11:50:42;22.10;95.60
25320;DHT22;13256;49.012;8.610;2023-04-23T11:59:00;22.90;94.40
25320;DHT22;13256;49.012;8.610;2023-04-23T12:01:45;22.90;93.10
25320;DHT22;13256;49.012;8.610;2023-04-23T12:04:21;22.80;93.60
25320;DHT22;13256;49.012;8.610;2023-04-23T12:06:51;22.90;92.80
25320;DHT22;13256;49.012;8.610;2023-04-23T12:09:19;23.00;93.20
25320;DHT22;13256;49.012;8.610;2023-04-23T12:11:47;23.20;93.60
25320;DHT22;13256;49.012;8.610;2023-04-23T12:14:27;23.50;93.70
25320;DHT22;13256;49.012;8.610;2023-04-23T12:17:08;24.00;91.90
25320;DHT22;13256;49.012;8.610;2023-04-23T12:19:35;23.90;90.20
25320;DHT22;13256;49.012;8.610;2023-04-23T12:22:04;23.60;89.80
25320;DHT22;13256;49.012;8.610;2023-04-23T12:24:47;23.40;91.70
25320;DHT22;13256;49.012;8.610;2023-04-23T12:27:18;23.50;91.90
25320;DHT22;13256;49.012;8.610;2023-04-23T12:29:48;23.60;90.50
25320;DHT22;13256;49.012;8.610;2023-04-23T12:32:17;23.80;88.50
25320;DHT22;13256;49.012;8.610;2023-04-23T12:34:52;24.00;89.40
25320;DHT22;13256;49.012;8.610;2023-04-23T12:37:27;24.30;88.00
25320;DHT22;13256;49.012;8.610;2023-04-23T12:39:56;24.60;86.40
25320;DHT22;13256;49.012;8.610;2023-04-23T12:42:24;24.60;87.70
25320;DHT22;13256;49.012;8.610;2023-04-23T12:44:51;24.60;88.90
25320;DHT22;13256;49.012;8.610;2023-04-23T12:47:28;24.40;86.50
25320;DHT22;13256;49.012;8.610;2023-04-23T12:49:57;24.60;86.40
25320;DHT22;13256;49.012;8.610;2023-04-23T12:52:23;24.80;85.40
25320;DHT22;13256;49.012;8.610;2023-04-23T12:54:52;25.00;82.70
25320;DHT22;13256;49.012;8.610;2023-04-23T12:57:21;25.00;83.80
25320;DHT22;13256;49.012;8.610;2023-04-23T12:59:55;25.20;80.70
25320;DHT22;13256;49.012;8.610;2023-04-23T13:02:23;24.80;79.60
25320;DHT22;13256;49.012;8.610;2023-04-23T13:04:53;24.40;77.50
25320;DHT22;13256;49.012;8.610;2023-04-23T13:07:26;24.10;78.10
25320;DHT22;13256;49.012;8.610;2023-04-23T13:09:53;24.20;80.60
25320;DHT22;13256;49.012;8.610;2023-04-23T13:12:22;24.30;82.10
25320;DHT22;13256;49.012;8.610;2023-04-23T13:14:49;24.30;78.10
25320;DHT22;13256;49.012;8.610;2023-04-23T13:17:18;24.50;78.60
25320;DHT22;13256;49.012;8.610;2023-04-23T13:19:46;24.60;75.50
25320;DHT22;13256;49.012;8.610;2023-04-23T13:22:15;24.60;74.90
25320;DHT22;13256;49.012;8.610;2023-04-23T13:24:42;24.40;77.60
25320;DHT22;13256;49.012;8.610;2023-04-23T13:27:09;24.60;82.00
25320;DHT22;13256;49.012;8.610;2023-04-23T13:29:36;24.80;80.30
25320;DHT22;13256;49.012;8.610;2023-04-23T13:32:08;25.00;81.10
25320;DHT22;13256;49.012;8.610;2023-04-23T13:34:35;25.30;76.90
25320;DHT22;13256;49.012;8.610;2023-04-23T13:37:02;24.90;74.80
25320;DHT22;13256;49.012;8.610;2023-04-23T13:39:31;24.60;78.20
25320;DHT22;13256;49.012;8.610;2023-04-23T13:41:58;24.30;77.20
25320;DHT22;13256;49.012;8.610;2023-04-23T13:44:35;24.10;76.50
25320;DHT22;13256;49.012;8.610;2023-04-23T13:47:02;24.40;77.40
25320;DHT22;13256;49.012;8.610;2023-04-23T13:49:30;24.80;81.50
25320;DHT22;13256;49.012;8.610;2023-04-23T13:51:58;24.80;74.50
25320;DHT22;13256;49.012;8.610;2023-04-23T13:54:29;24.30;75.00
25320;DHT22;13256;49.012;8.610;2023-04-23T13:56:56;24.50;77.80
25320;DHT22;13256;49.012;8.610;2023-04-23T13:59:23;24.80;79.20
25320;DHT22;13256;49.012;8.610;2023-04-23T14:01:50;24.80;78.50
25320;DHT22;13256;49.012;8.610;2023-04-23T14:04:22;24.80;75.20
25320;DHT22;13256;49.012;8.610;2023-04-23T14:06:49;25.10;74.20
25320;DHT22;13256;49.012;8.610;2023-04-23T14:09:16;25.10;73.90
25320;DHT22;13256;49.012;8.610;2023-04-23T14:11:46;25.00;73.30
25320;DHT22;13256;49.012;8.610;2023-04-23T14:14:13;24.90;75.30
25320;DHT22;13256;49.012;8.610;2023-04-23T14:16:43;24.90;74.60
25320;DHT22;13256;49.012;8.610;2023-04-23T14:19:12;24.70;74.30
25320;DHT22;13256;49.012;8.610;2023-04-23T14:21:41;24.20;73.80
25320;DHT22;13256;49.012;8.610;2023-04-23T14:24:22;24.20;74.00
25320;DHT22;13256;49.012;8.610;2023-04-23T14:26:53;24.00;76.00
25320;DHT22;13256;49.012;8.610;2023-04-23T14:31:54;23.40;75.80
25320;DHT22;13256;49.012;8.610;2023-04-23T14:34:21;23.30;77.00
25320;DHT22;13256;49.012;8.610;2023-04-23T14:36:48;23.10;78.00
25320;DHT22;13256;49.012;8.610;2023-04-23T14:39:15;23.20;78.90
25320;DHT22;13256;49.012;8.610;2023-04-23T14:41:45;23.40;78.80
25320;DHT22;13256;49.012;8.610;2023-04-23T14:44:14;23.30;75.90
25320;DHT22;13256;49.012;8.610;2023-04-23T14:46:46;23.40;77.00
25320;DHT22;13256;49.012;8.610;2023-04-23T14:49:18;23.40;77.00
25320;DHT22;13256;49.012;8.610;2023-04-23T14:51:49;23.10;73.20
25320;DHT22;13256;49.012;8.610;2023-04-23T14:54:19;22.90;76.30
25320;DHT22;13256;49.012;8.610;2023-04-23T14:56:48;22.70;77.10
25320;DHT22;13256;49.012;8.610;2023-04-23T14:59:24;22.60;77.40
25320;DHT22;13256;49.012;8.610;2023-04-23T15:01:56;22.50;76.60
25320;DHT22;13256;49.012;8.610;2023-04-23T15:04:23;22.50;75.40
25320;DHT22;13256;49.012;8.610;2023-04-23T15:06:50;22.60;76.50
25320;DHT22;13256;49.012;8.610;2023-04-23T15:09:17;22.70;76.50
25320;DHT22;13256;49.012;8.610;2023-04-23T15:11:43;22.60;77.20
25320;DHT22;13256;49.012;8.610;2023-04-23T15:14:23;22.50;76.20
25320;DHT22;13256;49.012;8.610;2023-04-23T15:16:51;22.50;74.50
25320;DHT22;13256;49.012;8.610;2023-04-23T15:19:20;22.50;75.20
25320;DHT22;13256;49.012;8.610;2023-04-23T15:21:53;22.50;75.70
25320;DHT22;13256;49.012;8.610;2023-04-23T15:24:23;22.30;72.80
25320;DHT22;13256;49.012;8.610;2023-04-23T15:26:50;22.20;73.70
25320;DHT22;13256;49.012;8.610;2023-04-23T15:29:22;22.30;74.50
25320;DHT22;13256;49.012;8.610;2023-04-23T15:31:55;22.20;72.40
25320;DHT22;13256;49.012;8.610;2023-04-23T15:34:24;22.30;74.10
25320;DHT22;13256;49.012;8.610;2023-04-23T15:36:55;22.30;73.90
25320;DHT22;13256;49.012;8.610;2023-04-23T15:39:26;22.20;70.50
25320;DHT22;13256;49.012;8.610;2023-04-23T15:41:55;22.00;70.00
25320;DHT22;13256;49.012;8.610;2023-04-23T15:44:23;21.90;71.00
25320;DHT22;13256;49.012;8.610;2023-04-23T15:46:54;21.80;73.20
25320;DHT22;13256;49.012;8.610;2023-04-23T15:49:26;21.60;75.20
25320;DHT22;13256;49.012;8.610;2023-04-23T15:51:53;21.50;75.10
25320;DHT22;13256;49.012;8.610;2023-04-23T15:54:23;21.50;76.10
25320;DHT22;13256;49.012;8.610;2023-04-23T15:56:52;21.50;74.60
25320;DHT22;13256;49.012;8.610;2023-04-23T15:59:25;21.50;77.10
25320;DHT22;13256;49.012;8.610;2023-04-23T16:01:52;21.40;78.20
25320;DHT22;13256;49.012;8.610;2023-04-23T16:10:07;20.60;85.00
25320;DHT22;13256;49.012;8.610;2023-04-23T16:12:37;20.30;88.70
25320;DHT22;13256;49.012;8.610;2023-04-23T16:15:04;19.90;90.00
25320;DHT22;13256;49.012;8.610;2023-04-23T16:17:37;19.60;91.40
25320;DHT22;13256;49.012;8.610;2023-04-23T16:20:04;19.20;92.60
25320;DHT22;13256;49.012;8.610;2023-04-23T16:22:31;19.00;93.80
25320;DHT22;13256;49.012;8.610;2023-04-23T16:24:58;18.80;94.90
25320;DHT22;13256;49.012;8.610;2023-04-23T16:27:26;18.60;96.10
25320;DHT22;13256;49.012;8.610;2023-04-23T16:29:56;18.40;97.10
25320;DHT22;13256;49.012;8.610;2023-04-23T16:32:27;18.20;98.50
25320;DHT22;13256;49.012;8.610;2023-04-23T16:34:54;17.70;99.60
25320;DHT22;13256;49.012;8.610;2023-04-23T16:37:24;17.40;99.90
25320;DHT22;13256;49.012;8.610;2023-04-23T16:39:58;17.10;99.90
25320;DHT22;13256;49.012;8.610;2023-04-23T16:42:27;16.60;99.90
25320;DHT22;13256;49.012;8.610;2023-04-23T16:44:57;16.50;99.90
25320;DHT22;13256;49.012;8.610;2023-04-23T16:47:24;16.20;99.90
25320;DHT22;13256;49.012;8.610;2023-04-23T16:49:54;16.00;99.90
25320;DHT22;13256;49.012;8.610;2023-04-23T16:52:22;15.70;99.90
25320;DHT22;13256;49.012;8.610;2023-04-23T16:54:50;15.40;99.90
25320;DHT22;13256;49.012;8.610;2023-04-23T16:57:19;15.20;99.90
25320;DHT22;13256;49.012;8.610;2023-04-23T16:59:51;15.00;99.90
25320;DHT22;13256;49.012;8.610;2023-04-23T17:02:20;15.00;99.90
25320;DHT22;13256;49.012;8.610;2023-04-23T17:04:47;14.90;99.90
25320;DHT22;13256;49.012;8.610;2023-04-23T17:07:19;14.90;99.90
25320;DHT22;13256;49.012;8.610;2023-04-23T17:09:45;14.80;99.90
25320;DHT22;13256;49.012;8.610;2023-04-23T17:12:13;14.90;99.90
25320;DHT22;13256;49.012;8.610;2023-04-23T17:14:43;14.90;99.90
25320;DHT22;13256;49.012;8.610;2023-04-23T17:17:10;15.00;99.90
25320;DHT22;13256;49.012;8.610;2023-04-23T17:19:37;15.10;99.90
25320;DHT22;13256;49.012;8.610;2023-04-23T17:22:07;15.20;99.90
25320;DHT22;13256;49.012;8.610;2023-04-23T17:24:36;15.30;99.90
25320;DHT22;13256;49.012;8.610;2023-04-23T17:27:05;15.40;99.90
25320;DHT22;13256;49.012;8.610;2023-04-23T17:29:35;15.50;99.90
25320;DHT22;13256;49.012;8.610;2023-04-23T17:32:03;15.50;99.90
25320;DHT22;13256;49.012;8.610;2023-04-23T17:34:38;15.50;99.90
25320;DHT22;13256;49.012;8.610;2023-04-23T17:37:08;15.60;99.90
25320;DHT22;13256;49.012;8.610;2023-04-23T17:39:35;15.50;99.90
25320;DHT22;13256;49.012;8.610;2023-04-23T17:44:49;15.40;99.90
25320;DHT22;13256;49.012;8.610;2023-04-23T17:47:18;15.40;99.90
25320;DHT22;13256;49.012;8.610;2023-04-23T17:49:45;15.50;99.90
25320;DHT22;13256;49.012;8.610;2023-04-23T17:52:14;15.50;99.90
25320;DHT22;13256;49.012;8.610;2023-04-23T17:54:43;15.40;99.90
25320;DHT22;13256;49.012;8.610;2023-04-23T17:57:11;15.30;99.90
25320;DHT22;13256;49.012;8.610;2023-04-23T17:59:38;15.30;99.90
25320;DHT22;13256;49.012;8.610;2023-04-23T18:02:07;15.20;99.90
25320;DHT22;13256;49.012;8.610;2023-04-23T18:04:35;15.20;99.90
25320;DHT22;13256;49.012;8.610;2023-04-23T18:07:02;15.30;99.90
25320;DHT22;13256;49.012;8.610;2023-04-23T18:09:28;15.20;99.90